createdAt,value
2017-08-20T00:00:59.383Z,1.30
2017-08-20T00:03:27.563Z,1.58
2017-08-20T00:05:55.727Z,1.50
2017-08-20T00:08:23.903Z,1.60
2017-08-20T00:10:52.382Z,1.60
2017-08-20T00:13:21.280Z,1.23
2017-08-20T00:15:49.872Z,1.45
2017-08-20T00:18:18.035Z,1.70
2017-08-20T00:20:46.207Z,1.95
2017-08-20T00:23:14.287Z,1.15
2017-08-20T00:25:42.451Z,1.40
2017-08-20T00:28:10.630Z,1.77
2017-08-20T00:30:38.703Z,1.30
2017-08-20T00:33:06.889Z,1.70
2017-08-20T00:35:35.055Z,1.42
2017-08-20T00:38:03.236Z,1.35
2017-08-20T00:40:32.840Z,2.30
2017-08-20T00:43:01.022Z,1.77
2017-08-20T00:45:29.179Z,1.23
2017-08-20T00:47:57.351Z,1.62
2017-08-20T00:50:25.863Z,1.42
2017-08-20T00:52:54.711Z,1.20
2017-08-20T00:55:22.804Z,1.87
2017-08-20T00:57:50.971Z,2.50
2017-08-20T01:00:19.076Z,1.75
2017-08-20T01:02:47.939Z,1.90
2017-08-20T01:05:16.120Z,2.05
2017-08-20T01:07:44.211Z,1.77
2017-08-20T01:10:13.070Z,1.80
2017-08-20T01:12:41.251Z,1.30
2017-08-20T01:15:10.149Z,1.10
2017-08-20T01:17:38.306Z,1.73
2017-08-20T01:20:06.796Z,1.42
2017-08-20T01:22:34.962Z,1.20
2017-08-20T01:25:03.142Z,1.58
2017-08-20T01:27:31.318Z,2.00
2017-08-20T01:29:59.486Z,1.80
2017-08-20T01:32:27.671Z,1.40
2017-08-20T01:34:55.772Z,2.10
2017-08-20T01:37:24.627Z,2.30
2017-08-20T01:39:52.798Z,2.15
2017-08-20T01:42:20.970Z,2.72
2017-08-20T01:44:49.851Z,2.20
2017-08-20T01:47:17.936Z,2.10
2017-08-20T01:49:47.443Z,2.10
2017-08-20T01:52:15.518Z,2.30
2017-08-20T01:54:44.394Z,2.33
2017-08-20T01:57:12.581Z,2.30
2017-08-20T01:59:40.754Z,2.15
2017-08-20T02:02:08.926Z,2.65
2017-08-20T02:04:37.602Z,2.20
2017-08-20T02:07:06.502Z,1.83
2017-08-20T02:09:34.678Z,2.00
2017-08-20T02:12:02.786Z,2.00
2017-08-20T02:14:31.732Z,2.20
2017-08-20T02:17:00.634Z,2.15
2017-08-20T02:19:28.810Z,2.30
2017-08-20T02:21:57.074Z,1.95
2017-08-20T02:24:25.570Z,4.20
2017-08-20T02:26:53.741Z,2.30
2017-08-20T02:29:21.914Z,1.70
2017-08-20T02:31:50.014Z,2.60
2017-08-20T02:34:18.162Z,2.20
2017-08-20T02:36:46.334Z,2.08
2017-08-20T02:39:15.434Z,2.12
2017-08-20T02:41:43.606Z,2.03
2017-08-20T02:44:11.782Z,2.05
2017-08-20T02:46:40.678Z,1.65
2017-08-20T02:49:08.754Z,1.87
2017-08-20T02:51:36.917Z,2.33
2017-08-20T02:54:05.810Z,1.60
2017-08-20T02:56:33.887Z,1.90
2017-08-20T02:59:02.054Z,2.00
2017-08-20T03:01:30.949Z,1.92
2017-08-20T03:03:59.122Z,1.77
2017-08-20T03:06:27.298Z,2.50
2017-08-20T03:08:55.474Z,2.78
2017-08-20T03:11:23.643Z,2.55
2017-08-20T03:13:51.713Z,2.20
2017-08-20T03:16:19.890Z,2.87
2017-08-20T03:18:48.790Z,2.62
2017-08-20T03:21:18.402Z,2.50
2017-08-20T03:23:46.562Z,2.60
2017-08-20T03:26:14.738Z,2.33
2017-08-20T03:28:42.914Z,2.47
2017-08-20T03:31:11.087Z,2.30
2017-08-20T03:33:40.068Z,2.45
2017-08-20T03:36:08.974Z,2.70
2017-08-20T03:38:37.142Z,3.42
2017-08-20T03:41:05.630Z,2.60
2017-08-20T03:43:33.802Z,2.40
2017-08-20T03:46:02.694Z,2.75
2017-08-20T03:48:30.874Z,2.50
2017-08-20T03:50:58.977Z,2.42
2017-08-20T03:53:27.822Z,2.58
2017-08-20T03:55:56.719Z,2.08
2017-08-20T03:58:24.902Z,2.22
2017-08-20T04:00:53.070Z,2.50
2017-08-20T04:03:21.242Z,2.50
2017-08-20T04:05:49.318Z,3.10
2017-08-20T04:08:17.490Z,2.58
2017-08-20T04:10:45.666Z,2.40
2017-08-20T04:13:13.838Z,2.30
2017-08-20T04:15:42.014Z,2.67
2017-08-20T04:18:10.902Z,2.33
2017-08-20T04:20:39.074Z,2.15
2017-08-20T04:23:07.253Z,2.20
2017-08-20T04:25:35.426Z,2.97
2017-08-20T04:28:03.505Z,2.30
2017-08-20T04:30:31.670Z,2.05
2017-08-20T04:32:59.846Z,2.30
2017-08-20T04:35:27.927Z,2.17
2017-08-20T04:37:56.094Z,2.20
2017-08-20T04:40:24.270Z,1.67
2017-08-20T04:42:52.346Z,1.87
2017-08-20T04:45:20.839Z,2.28
2017-08-20T04:47:48.910Z,2.10
2017-08-20T04:50:17.008Z,2.37
2017-08-20T04:52:45.863Z,1.85
2017-08-20T04:55:13.938Z,2.12
2017-08-20T04:57:42.041Z,2.75
2017-08-20T05:00:10.502Z,2.05
2017-08-20T05:02:38.594Z,2.03
2017-08-20T05:05:07.454Z,1.92
2017-08-20T05:07:35.523Z,2.80
2017-08-20T05:10:03.626Z,1.90
2017-08-20T05:12:32.462Z,2.78
2017-08-20T05:15:01.298Z,1.70
2017-08-20T05:17:30.170Z,2.08
2017-08-20T05:19:58.243Z,3.15
2017-08-20T05:22:26.313Z,2.12
2017-08-20T05:24:55.999Z,1.73
2017-08-20T05:27:24.802Z,2.40
2017-08-20T05:29:52.874Z,2.10
2017-08-20T05:32:20.971Z,2.17
2017-08-20T05:34:49.438Z,2.60
2017-08-20T05:37:17.535Z,2.35
2017-08-20T05:39:46.394Z,2.10
2017-08-20T05:42:14.490Z,2.00
2017-08-20T05:44:43.331Z,2.37
2017-08-20T05:47:11.426Z,2.40
2017-08-20T05:49:39.502Z,2.65
2017-08-20T05:52:07.602Z,2.75
2017-08-20T05:54:36.446Z,2.40
2017-08-20T05:57:04.526Z,3.00
2017-08-20T05:59:32.598Z,3.10
2017-08-20T06:02:00.735Z,3.00
2017-08-20T06:04:28.834Z,2.72
2017-08-20T06:06:56.879Z,2.55
2017-08-20T06:09:25.738Z,3.33
2017-08-20T06:11:54.583Z,2.80
2017-08-20T06:14:22.700Z,3.35
2017-08-20T06:16:50.766Z,3.20
2017-08-20T06:19:18.838Z,2.87
2017-08-20T06:21:46.950Z,2.80
2017-08-20T06:24:15.790Z,2.85
2017-08-20T06:26:43.862Z,2.67
2017-08-20T06:29:11.958Z,2.70
2017-08-20T06:31:40.818Z,3.25
2017-08-20T06:34:08.890Z,2.75
2017-08-20T06:36:36.986Z,2.67
2017-08-20T06:39:05.846Z,2.15
2017-08-20T06:41:33.950Z,2.87
2017-08-20T06:44:02.023Z,2.45
2017-08-20T06:46:30.097Z,2.60
2017-08-20T06:48:58.954Z,2.30
2017-08-20T06:51:27.052Z,3.35
2017-08-20T06:53:55.518Z,2.70
2017-08-20T06:56:23.614Z,2.45
2017-08-20T06:58:52.603Z,2.50
2017-08-20T07:01:20.746Z,3.17
2017-08-20T07:03:48.922Z,2.53
2017-08-20T07:06:17.094Z,2.30
2017-08-20T07:08:45.174Z,2.83
2017-08-20T07:11:13.254Z,2.85
2017-08-20T07:13:42.953Z,2.35
2017-08-20T07:16:11.126Z,2.75
2017-08-20T07:18:40.834Z,2.25
2017-08-20T07:21:08.906Z,2.08
2017-08-20T07:23:37.082Z,1.85
2017-08-20T07:26:05.994Z,2.42
2017-08-20T07:28:34.070Z,2.20
2017-08-20T07:31:02.563Z,3.40
2017-08-20T07:33:31.414Z,2.30
2017-08-20T07:36:00.278Z,2.47
2017-08-20T07:38:28.350Z,2.30
2017-08-20T07:40:56.550Z,3.25
2017-08-20T07:43:24.726Z,1.85
2017-08-20T07:45:52.906Z,2.70
2017-08-20T07:48:20.986Z,2.40
2017-08-20T07:50:49.082Z,2.20
2017-08-20T07:53:17.925Z,3.90
2017-08-20T07:55:46.042Z,2.35
2017-08-20T07:58:14.902Z,2.90
2017-08-20T08:00:43.073Z,2.55
2017-08-20T08:03:11.170Z,2.20
2017-08-20T08:05:39.326Z,2.50
2017-08-20T08:08:07.497Z,1.80
2017-08-20T08:10:35.666Z,2.17
2017-08-20T08:13:03.842Z,2.10
2017-08-20T08:15:32.313Z,7.82
2017-08-20T08:18:00.498Z,2.90
2017-08-20T08:20:28.674Z,2.40
2017-08-20T08:22:56.846Z,2.75
2017-08-20T08:25:25.022Z,2.17
2017-08-20T08:27:53.915Z,2.22
2017-08-20T08:30:22.494Z,2.60
2017-08-20T08:32:50.732Z,3.05
2017-08-20T08:35:19.662Z,2.80
2017-08-20T08:37:48.246Z,2.90
2017-08-20T08:40:16.830Z,2.60
2017-08-20T08:42:45.011Z,2.00
2017-08-20T08:45:13.117Z,2.85
2017-08-20T08:47:42.074Z,2.50
2017-08-20T08:50:10.553Z,2.42
2017-08-20T08:52:39.150Z,2.42
2017-08-20T08:55:07.209Z,2.30
2017-08-20T08:57:36.070Z,2.72
2017-08-20T09:00:04.174Z,4.40
2017-08-20T09:02:32.345Z,2.20
2017-08-20T09:05:00.518Z,3.00
2017-08-20T09:07:28.694Z,2.58
2017-08-20T09:09:56.799Z,2.87
2017-08-20T09:12:24.871Z,2.25
2017-08-20T09:14:53.338Z,2.05
2017-08-20T09:17:21.438Z,1.75
2017-08-20T09:19:49.906Z,1.95
2017-08-20T09:22:18.792Z,2.95
2017-08-20T09:24:48.370Z,2.70
2017-08-20T09:27:16.442Z,2.78
2017-08-20T09:29:44.538Z,2.60
2017-08-20T09:32:12.606Z,2.15
2017-08-20T09:34:40.748Z,2.12
2017-08-20T09:37:09.542Z,2.35
2017-08-20T09:39:37.638Z,2.47
2017-08-20T09:42:05.734Z,2.25
2017-08-20T09:44:34.209Z,2.95
2017-08-20T09:47:02.298Z,2.70
2017-08-20T09:49:30.370Z,2.12
2017-08-20T09:51:58.474Z,3.72
2017-08-20T09:54:26.551Z,2.47
2017-08-20T09:56:54.634Z,1.80
2017-08-20T09:59:22.722Z,2.70
2017-08-20T10:01:50.802Z,2.58
2017-08-20T10:04:18.914Z,2.75
2017-08-20T10:06:47.386Z,2.22
2017-08-20T10:09:16.683Z,2.42
2017-08-20T10:11:45.571Z,1.98
2017-08-20T10:14:13.642Z,1.92
2017-08-20T10:16:41.738Z,1.90
2017-08-20T10:19:09.811Z,1.70
2017-08-20T10:21:37.906Z,2.35
2017-08-20T10:24:06.002Z,1.70
2017-08-20T10:26:34.078Z,1.58
2017-08-20T10:29:02.174Z,1.92
2017-08-20T10:31:31.015Z,1.95
2017-08-20T10:33:59.135Z,2.08
2017-08-20T10:36:27.603Z,2.00
2017-08-20T10:38:55.681Z,1.60
2017-08-20T10:41:23.772Z,1.55
2017-08-20T10:43:51.843Z,1.65
2017-08-20T10:46:19.946Z,1.75
2017-08-20T10:48:48.018Z,1.73
2017-08-20T10:51:16.095Z,1.77
2017-08-20T10:53:44.186Z,1.95
2017-08-20T10:56:12.290Z,1.80
2017-08-20T10:58:41.130Z,1.90
2017-08-20T11:01:09.202Z,2.20
2017-08-20T11:03:37.298Z,1.50
2017-08-20T11:06:05.394Z,1.95
2017-08-20T11:08:34.343Z,1.85
2017-08-20T11:11:02.411Z,2.12
2017-08-20T11:13:30.886Z,1.75
2017-08-20T11:15:58.963Z,1.25
2017-08-20T11:18:27.035Z,1.67
2017-08-20T11:20:55.130Z,1.70
2017-08-20T11:23:23.206Z,1.52
2017-08-20T11:25:51.318Z,1.50
2017-08-20T11:28:19.389Z,1.80
2017-08-20T11:30:47.480Z,1.33
2017-08-20T11:33:16.355Z,1.52
2017-08-20T11:35:44.463Z,1.23
2017-08-20T11:38:12.556Z,1.30
2017-08-20T11:40:40.630Z,1.35
2017-08-20T11:43:08.734Z,1.20
2017-08-20T11:45:37.586Z,1.67
2017-08-20T11:48:05.654Z,1.30
2017-08-20T11:50:33.759Z,1.25
2017-08-20T11:53:02.600Z,1.70
2017-08-20T11:55:30.674Z,1.67
2017-08-20T11:57:58.778Z,1.50
2017-08-20T12:00:26.882Z,1.10
2017-08-20T12:02:54.977Z,1.20
2017-08-20T12:05:23.064Z,1.20
2017-08-20T12:07:51.166Z,1.23
2017-08-20T12:10:19.239Z,1.05
2017-08-20T12:12:47.314Z,1.58
2017-08-20T12:15:15.426Z,1.25
2017-08-20T12:17:43.507Z,1.52
2017-08-20T12:20:11.570Z,1.83
2017-08-20T12:22:39.674Z,1.27
2017-08-20T12:25:07.758Z,1.45
2017-08-20T12:27:35.834Z,1.35
2017-08-20T12:30:03.950Z,1.35
2017-08-20T12:32:32.038Z,1.60
2017-08-20T12:35:01.362Z,1.42
2017-08-20T12:37:29.422Z,1.23
2017-08-20T12:39:57.494Z,1.80
2017-08-20T12:42:25.598Z,1.48
2017-08-20T12:44:53.669Z,1.30
2017-08-20T12:47:21.746Z,1.52
2017-08-20T12:49:49.842Z,1.40
2017-08-20T12:52:18.702Z,1.10
2017-08-20T12:54:46.798Z,1.60
2017-08-20T12:57:15.638Z,1.35
2017-08-20T12:59:43.739Z,1.30
2017-08-20T13:02:11.874Z,1.20
2017-08-20T13:04:39.964Z,1.27
2017-08-20T13:07:08.023Z,1.62
2017-08-20T13:09:36.135Z,1.50
2017-08-20T13:12:04.198Z,1.27
2017-08-20T13:14:32.322Z,1.35
2017-08-20T13:17:01.252Z,1.17
2017-08-20T13:19:29.314Z,1.20
2017-08-20T13:21:57.391Z,1.20
2017-08-20T13:24:25.502Z,2.87
2017-08-20T13:26:53.574Z,1.33
2017-08-20T13:29:21.646Z,1.20
2017-08-20T13:31:49.940Z,1.40
2017-08-20T13:34:18.046Z,1.55
2017-08-20T13:36:46.135Z,1.30
2017-08-20T13:39:14.638Z,1.50
2017-08-20T13:41:43.810Z,1.65
2017-08-20T13:44:13.047Z,1.85
2017-08-20T13:46:41.111Z,1.35
2017-08-20T13:49:09.209Z,1.40
2017-08-20T13:51:38.068Z,0.95
2017-08-20T13:54:06.138Z,3.15
2017-08-20T13:56:34.626Z,1.65
2017-08-20T13:59:02.726Z,2.25
2017-08-20T14:01:30.834Z,4.55
2017-08-20T14:03:58.913Z,10.70
2017-08-20T14:06:26.991Z,7.85
2017-08-20T14:08:55.086Z,2.75
2017-08-20T14:11:23.159Z,2.58
2017-08-20T14:13:51.254Z,2.20
2017-08-20T14:16:20.114Z,1.35
2017-08-20T14:18:48.214Z,2.08
2017-08-20T14:21:17.056Z,1.40
2017-08-20T14:23:45.153Z,1.52
2017-08-20T14:26:13.219Z,1.70
2017-08-20T14:28:41.328Z,2.08
2017-08-20T14:31:10.171Z,4.90
2017-08-20T14:33:38.246Z,2.95
2017-08-20T14:36:06.350Z,1.90
2017-08-20T14:38:35.191Z,3.78
2017-08-20T14:41:03.263Z,5.40
2017-08-20T14:43:31.358Z,5.82
2017-08-20T14:45:59.458Z,7.37
2017-08-20T14:48:28.351Z,13.13
2017-08-20T14:50:57.198Z,12.63
2017-08-20T14:53:25.674Z,9.60
2017-08-20T14:55:53.778Z,7.32
2017-08-20T14:58:21.854Z,2.60
2017-08-20T15:00:49.946Z,2.08
2017-08-20T15:03:18.413Z,1.98
2017-08-20T15:05:46.526Z,1.60
2017-08-20T15:08:14.616Z,1.62
2017-08-20T15:10:42.699Z,1.42
2017-08-20T15:13:10.798Z,1.98
2017-08-20T15:15:38.946Z,1.40
2017-08-20T15:18:07.519Z,1.85
2017-08-20T15:20:36.422Z,1.27
2017-08-20T15:23:04.593Z,1.35
2017-08-20T15:25:32.778Z,1.50
2017-08-20T15:28:00.956Z,1.50
2017-08-20T15:30:29.119Z,2.10
2017-08-20T15:32:57.298Z,1.60
2017-08-20T15:35:25.774Z,1.37
2017-08-20T15:37:53.950Z,1.75
2017-08-20T15:40:22.530Z,1.23
2017-08-20T15:42:50.706Z,2.17
2017-08-20T15:45:18.887Z,1.62
2017-08-20T15:47:47.054Z,1.42
2017-08-20T15:50:15.234Z,1.80
2017-08-20T15:52:43.417Z,1.45
2017-08-20T15:55:11.583Z,1.60
2017-08-20T15:57:39.770Z,1.45
2017-08-20T16:00:07.931Z,1.40
2017-08-20T16:02:36.824Z,1.62
2017-08-20T16:05:06.521Z,1.40
2017-08-20T16:07:34.691Z,1.75
2017-08-20T16:10:02.746Z,1.65
2017-08-20T16:12:30.818Z,1.50
2017-08-20T16:15:00.050Z,1.90
2017-08-20T16:17:28.914Z,2.28
2017-08-20T16:19:58.120Z,6.90
2017-08-20T16:22:26.195Z,2.00
2017-08-20T16:24:55.062Z,1.62
2017-08-20T16:27:23.138Z,1.50
2017-08-20T16:29:51.215Z,1.80
2017-08-20T16:32:20.442Z,1.17
2017-08-20T16:34:48.922Z,1.58
2017-08-20T16:37:17.026Z,2.10
2017-08-20T16:39:45.869Z,1.15
2017-08-20T16:42:13.941Z,1.70
2017-08-20T16:44:42.046Z,1.48
2017-08-20T16:47:11.649Z,1.50
2017-08-20T16:49:40.121Z,1.35
2017-08-20T16:52:08.226Z,1.95
2017-08-20T16:54:37.074Z,1.45
2017-08-20T16:57:05.542Z,1.55
2017-08-20T16:59:34.850Z,1.50
2017-08-20T17:02:03.646Z,2.10
2017-08-20T17:04:31.742Z,1.65
2017-08-20T17:06:59.814Z,1.40
2017-08-20T17:09:27.922Z,1.50
2017-08-20T17:11:55.993Z,3.78
2017-08-20T17:14:24.462Z,3.17
2017-08-20T17:16:52.957Z,4.72
2017-08-20T17:19:21.031Z,4.85
2017-08-20T17:21:49.851Z,6.00
2017-08-20T17:24:19.074Z,6.78
2017-08-20T17:26:48.764Z,8.10
2017-08-20T17:29:17.241Z,6.68
2017-08-20T17:31:45.278Z,6.20
2017-08-20T17:34:13.390Z,4.00
2017-08-20T17:36:41.486Z,3.25
2017-08-20T17:39:09.978Z,2.50
2017-08-20T17:41:38.050Z,1.85
2017-08-20T17:44:06.923Z,1.50
2017-08-20T17:46:34.998Z,1.60
2017-08-20T17:49:03.066Z,1.70
2017-08-20T17:51:32.058Z,1.50
2017-08-20T17:54:00.530Z,1.40
2017-08-20T17:56:28.626Z,1.52
2017-08-20T17:58:56.741Z,1.87
2017-08-20T18:01:24.817Z,1.85
2017-08-20T18:03:53.282Z,1.62
2017-08-20T18:06:21.771Z,1.77
2017-08-20T18:08:51.130Z,1.75
2017-08-20T18:11:19.203Z,1.75
2017-08-20T18:13:47.306Z,2.33
2017-08-20T18:16:16.158Z,1.75
2017-08-20T18:18:44.626Z,1.85
2017-08-20T18:21:12.743Z,1.50
2017-08-20T18:23:41.582Z,2.10
2017-08-20T18:26:09.662Z,2.42
2017-08-20T18:28:37.758Z,2.75
2017-08-20T18:31:05.832Z,4.20
2017-08-20T18:33:33.926Z,5.00
2017-08-20T18:36:02.773Z,5.25
2017-08-20T18:38:31.626Z,5.35
2017-08-20T18:40:59.722Z,4.85
2017-08-20T18:43:27.799Z,5.32
2017-08-20T18:45:56.298Z,5.07
2017-08-20T18:48:24.370Z,5.72
2017-08-20T18:50:52.446Z,4.85
2017-08-20T18:53:20.558Z,4.45
2017-08-20T18:55:48.634Z,3.30
2017-08-20T18:58:16.710Z,2.75
2017-08-20T19:00:45.203Z,2.53
2017-08-20T19:03:14.621Z,2.53
2017-08-20T19:05:42.810Z,2.70
2017-08-20T19:08:12.622Z,2.60
2017-08-20T19:10:41.618Z,2.33
2017-08-20T19:13:10.914Z,4.00
2017-08-20T19:15:38.987Z,3.67
2017-08-20T19:18:07.494Z,3.87
2017-08-20T19:20:35.574Z,3.85
2017-08-20T19:23:04.419Z,4.05
2017-08-20T19:25:34.721Z,4.55
2017-08-20T19:28:02.815Z,3.47
2017-08-20T19:30:30.906Z,4.28
2017-08-20T19:32:59.378Z,4.87
2017-08-20T19:35:27.498Z,4.53
2017-08-20T19:37:56.019Z,4.70
2017-08-20T19:40:24.814Z,5.10
2017-08-20T19:42:54.755Z,5.00
2017-08-20T19:45:22.830Z,6.20
2017-08-20T19:47:50.952Z,5.65
2017-08-20T19:50:19.030Z,7.15
2017-08-20T19:52:47.106Z,7.68
2017-08-20T19:55:16.337Z,7.70
2017-08-20T19:57:44.414Z,6.70
2017-08-20T20:00:12.513Z,5.55
2017-08-20T20:02:41.399Z,5.20
2017-08-20T20:05:10.245Z,5.37
2017-08-20T20:07:38.316Z,5.32
2017-08-20T20:10:06.806Z,4.25
2017-08-20T20:12:34.881Z,4.55
2017-08-20T20:15:03.063Z,4.07
2017-08-20T20:17:31.141Z,4.68
2017-08-20T20:19:59.302Z,6.30
2017-08-20T20:22:27.478Z,6.82
2017-08-20T20:24:55.740Z,9.48
2017-08-20T20:27:23.826Z,11.10
2017-08-20T20:29:51.998Z,13.75
2017-08-20T20:32:20.170Z,16.85
2017-08-20T20:34:48.334Z,16.33
2017-08-20T20:37:16.429Z,15.75
2017-08-20T20:39:44.603Z,16.37
2017-08-20T20:42:12.775Z,16.10
2017-08-20T20:44:40.862Z,15.73
2017-08-20T20:47:09.734Z,17.98
2017-08-20T20:49:37.966Z,19.80
2017-08-20T20:52:06.087Z,17.80
2017-08-20T20:54:34.258Z,16.35
2017-08-20T20:57:02.439Z,18.30
2017-08-20T20:59:30.611Z,16.17
2017-08-20T21:01:58.708Z,15.60
2017-08-20T21:04:27.575Z,16.33
2017-08-20T21:06:55.744Z,15.90
2017-08-20T21:09:25.450Z,14.50
2017-08-20T21:11:53.630Z,10.98
2017-08-20T21:14:21.738Z,10.52
2017-08-20T21:16:50.703Z,10.30
2017-08-20T21:19:18.868Z,11.65
2017-08-20T21:21:46.959Z,7.15
2017-08-20T21:24:15.802Z,6.78
2017-08-20T21:26:45.130Z,7.47
2017-08-20T21:29:13.310Z,8.07
2017-08-20T21:31:41.411Z,7.70
2017-08-20T21:34:10.268Z,8.75
2017-08-20T21:36:38.855Z,7.55
2017-08-20T21:39:07.434Z,6.28
2017-08-20T21:41:35.610Z,7.10
2017-08-20T21:44:03.786Z,6.78
2017-08-20T21:46:32.045Z,6.82
2017-08-20T21:49:00.115Z,5.43
2017-08-20T21:51:28.302Z,5.43
2017-08-20T21:53:56.478Z,6.55
2017-08-20T21:56:24.654Z,8.23
2017-08-20T21:58:53.234Z,7.32
2017-08-20T22:01:21.818Z,7.32
2017-08-20T22:03:49.994Z,9.38
2017-08-20T22:06:18.178Z,11.90
2017-08-20T22:08:46.432Z,16.55
2017-08-20T22:11:14.518Z,23.50
2017-08-20T22:13:42.695Z,22.17
2017-08-20T22:16:10.866Z,18.92
2017-08-20T22:18:38.956Z,16.20
2017-08-20T22:21:07.126Z,13.70
2017-08-20T22:23:35.630Z,9.65
2017-08-20T22:26:04.174Z,6.78
2017-08-20T22:28:32.286Z,5.28
2017-08-20T22:31:00.840Z,6.87
2017-08-20T22:33:29.014Z,5.20
2017-08-20T22:35:57.110Z,5.35
2017-08-20T22:38:25.610Z,5.35
2017-08-20T22:40:53.926Z,5.72
2017-08-20T22:43:22.830Z,4.68
2017-08-20T22:45:51.006Z,4.80
2017-08-20T22:48:19.082Z,4.55
2017-08-20T22:50:47.194Z,4.32
2017-08-20T22:53:15.735Z,4.85
2017-08-20T22:55:43.823Z,3.62
2017-08-20T22:58:11.983Z,3.60
2017-08-20T23:00:40.162Z,4.15
2017-08-20T23:03:08.342Z,4.40
2017-08-20T23:05:36.514Z,4.43
2017-08-20T23:08:04.679Z,5.12
2017-08-20T23:10:32.823Z,4.72
2017-08-20T23:13:00.923Z,5.10
2017-08-20T23:15:29.098Z,4.20
2017-08-20T23:17:57.274Z,4.10
2017-08-20T23:20:25.864Z,3.60
2017-08-20T23:22:54.026Z,3.62
2017-08-20T23:25:22.206Z,3.65
2017-08-20T23:27:50.378Z,3.72
2017-08-20T23:30:18.474Z,3.42
2017-08-20T23:32:47.124Z,3.70
2017-08-20T23:35:15.635Z,2.60
2017-08-20T23:37:44.202Z,3.33
2017-08-20T23:40:12.298Z,2.78
2017-08-20T23:42:40.854Z,2.40
2017-08-20T23:45:09.034Z,2.28
2017-08-20T23:47:37.141Z,2.53
2017-08-20T23:50:05.693Z,2.20
2017-08-20T23:52:33.862Z,2.35
2017-08-20T23:55:02.039Z,2.83
2017-08-20T23:57:30.207Z,3.17
2017-08-20T23:59:58.382Z,2.72
